sensor_id;sensor_type;location;lat;lon;timestamp;pressure;altitude;pressure_sealevel;temperature;humidity
65880;BME280;52661;51.364;6.054;2022-10-26T00:01:26;101122.25;;;11.24;100.00
65880;BME280;52661;51.364;6.054;2022-10-26T00:03:54;101122.69;;;11.40;100.00
65880;BME280;52661;51.364;6.054;2022-10-26T00:06:22;101122.31;;;11.49;100.00
65880;BME280;52661;51.364;6.054;2022-10-26T00:08:55;101122.72;;;11.54;100.00
65880;BME280;52661;51.364;6.054;2022-10-26T00:11:21;101114.94;;;11.42;100.00
65880;BME280;52661;51.364;6.054;2022-10-26T00:13:47;101114.19;;;11.49;100.00
65880;BME280;52661;51.364;6.054;2022-10-26T00:16:19;101129.34;;;11.60;100.00
65880;BME280;52661;51.364;6.054;2022-10-26T00:18:46;101127.81;;;11.70;100.00
65880;BME280;52661;51.364;6.054;2022-10-26T00:21:12;101129.38;;;11.67;100.00
65880;BME280;52661;51.364;6.054;2022-10-26T00:23:37;101119.63;;;11.63;100.00
65880;BME280;52661;51.364;6.054;2022-10-26T00:26:03;101126.66;;;11.64;100.00
65880;BME280;52661;51.364;6.054;2022-10-26T00:28:29;101122.72;;;11.54;100.00
65880;BME280;52661;51.364;6.054;2022-10-26T00:30:59;101121.19;;;11.57;100.00
65880;BME280;52661;51.364;6.054;2022-10-26T00:33:25;101114.94;;;11.46;100.00
65880;BME280;52661;51.364;6.054;2022-10-26T00:35:53;101106.38;;;11.44;100.00
65880;BME280;52661;51.364;6.054;2022-10-26T00:38:19;101097.44;;;11.47;100.00
65880;BME280;52661;51.364;6.054;2022-10-26T00:40:44;101093.19;;;11.42;100.00
65880;BME280;52661;51.364;6.054;2022-10-26T00:43:15;101090.84;;;11.37;100.00
65880;BME280;52661;51.364;6.054;2022-10-26T00:45:41;101092.75;;;11.33;100.00
65880;BME280;52661;51.364;6.054;2022-10-26T00:48:18;101089.66;;;11.31;100.00
65880;BME280;52661;51.364;6.054;2022-10-26T00:50:46;101090.81;;;11.30;100.00
65880;BME280;52661;51.364;6.054;2022-10-26T00:53:12;101081.88;;;11.26;100.00
65880;BME280;52661;51.364;6.054;2022-10-26T00:55:46;101084.22;;;11.27;100.00
65880;BME280;52661;51.364;6.054;2022-10-26T00:58:12;101086.16;;;11.23;100.00
65880;BME280;52661;51.364;6.054;2022-10-26T01:00:39;101099.38;;;11.32;100.00
65880;BME280;52661;51.364;6.054;2022-10-26T01:03:07;101090.84;;;11.41;100.00
65880;BME280;52661;51.364;6.054;2022-10-26T01:05:34;101097.09;;;11.52;100.00
65880;BME280;52661;51.364;6.054;2022-10-26T01:08:01;101097.88;;;11.59;100.00
65880;BME280;52661;51.364;6.054;2022-10-26T01:10:27;101094.41;;;11.66;100.00
65880;BME280;52661;51.364;6.054;2022-10-26T01:12:54;101102.19;;;11.67;100.00
65880;BME280;52661;51.364;6.054;2022-10-26T01:15:22;101095.97;;;11.67;100.00
65880;BME280;52661;51.364;6.054;2022-10-26T01:18:02;101090.19;;;11.72;100.00
65880;BME280;52661;51.364;6.054;2022-10-26T01:21:17;101079.22;;;11.47;100.00
65880;BME280;52661;51.364;6.054;2022-10-26T01:27:11;101071.47;;;11.53;100.00
65880;BME280;52661;51.364;6.054;2022-10-26T01:32:34;101067.94;;;11.42;100.00
65880;BME280;52661;51.364;6.054;2022-10-26T01:35:11;101058.66;;;11.46;100.00
65880;BME280;52661;51.364;6.054;2022-10-26T01:37:45;101054.38;;;11.49;100.00
65880;BME280;52661;51.364;6.054;2022-10-26T01:40:26;101051.22;;;11.32;100.00
65880;BME280;52661;51.364;6.054;2022-10-26T01:42:56;101059.78;;;11.31;100.00
65880;BME280;52661;51.364;6.054;2022-10-26T01:45:23;101050.84;;;11.38;100.00
65880;BME280;52661;51.364;6.054;2022-10-26T01:47:51;101046.22;;;11.45;100.00
65880;BME280;52661;51.364;6.054;2022-10-26T01:50:18;101044.66;;;11.55;100.00
65880;BME280;52661;51.364;6.054;2022-10-26T01:52:48;101037.28;;;11.62;100.00
65880;BME280;52661;51.364;6.054;2022-10-26T01:55:38;101029.53;;;11.54;100.00
65880;BME280;52661;51.364;6.054;2022-10-26T01:58:16;101037.28;;;11.48;100.00
65880;BME280;52661;51.364;6.054;2022-10-26T02:00:56;101026.00;;;11.35;100.00
65880;BME280;52661;51.364;6.054;2022-10-26T02:08:56;101015.53;;;11.34;100.00
65880;BME280;52661;51.364;6.054;2022-10-26T02:11:40;101019.41;;;11.33;100.00
65880;BME280;52661;51.364;6.054;2022-10-26T02:16:55;101018.63;;;11.40;100.00
65880;BME280;52661;51.364;6.054;2022-10-26T02:19:32;101019.81;;;11.39;100.00
65880;BME280;52661;51.364;6.054;2022-10-26T02:22:24;101018.25;;;11.41;100.00
65880;BME280;52661;51.364;6.054;2022-10-26T02:24:51;101019.81;;;11.46;100.00
65880;BME280;52661;51.364;6.054;2022-10-26T02:27:21;101013.19;;;11.43;100.00
65880;BME280;52661;51.364;6.054;2022-10-26T02:29:49;101011.25;;;11.44;100.00
65880;BME280;52661;51.364;6.054;2022-10-26T02:32:17;101008.53;;;11.40;100.00
65880;BME280;52661;51.364;6.054;2022-10-26T02:34:44;101008.16;;;11.45;100.00
65880;BME280;52661;51.364;6.054;2022-10-26T02:37:13;101005.81;;;11.44;100.00
65880;BME280;52661;51.364;6.054;2022-10-26T02:39:40;101000.38;;;11.47;100.00
65880;BME280;52661;51.364;6.054;2022-10-26T02:42:08;100991.06;;;11.45;100.00
65880;BME280;52661;51.364;6.054;2022-10-26T02:44:42;100996.13;;;11.46;100.00
65880;BME280;52661;51.364;6.054;2022-10-26T02:47:10;100986.78;;;11.47;100.00
65880;BME280;52661;51.364;6.054;2022-10-26T02:49:36;100995.72;;;11.48;100.00
65880;BME280;52661;51.364;6.054;2022-10-26T02:52:08;100991.06;;;11.48;100.00
65880;BME280;52661;51.364;6.054;2022-10-26T02:57:15;100990.28;;;11.55;100.00
65880;BME280;52661;51.364;6.054;2022-10-26T02:59:43;100982.53;;;11.57;100.00
65880;BME280;52661;51.364;6.054;2022-10-26T03:02:13;100982.91;;;11.59;100.00
65880;BME280;52661;51.364;6.054;2022-10-26T03:04:39;100988.75;;;11.61;100.00
65880;BME280;52661;51.364;6.054;2022-10-26T03:07:04;100993.00;;;11.65;100.00
65880;BME280;52661;51.364;6.054;2022-10-26T03:09:29;100989.13;;;11.70;100.00
65880;BME280;52661;51.364;6.054;2022-10-26T03:11:55;100990.28;;;11.69;100.00
65880;BME280;52661;51.364;6.054;2022-10-26T03:14:20;100986.03;;;11.68;100.00
65880;BME280;52661;51.364;6.054;2022-10-26T03:16:45;100986.06;;;11.71;100.00
65880;BME280;52661;51.364;6.054;2022-10-26T03:19:11;100988.38;;;11.73;100.00
65880;BME280;52661;51.364;6.054;2022-10-26T03:21:36;100990.31;;;11.72;100.00
65880;BME280;52661;51.364;6.054;2022-10-26T03:24:02;100993.44;;;11.74;100.00
65880;BME280;52661;51.364;6.054;2022-10-26T03:26:27;100988.78;;;11.75;100.00
65880;BME280;52661;51.364;6.054;2022-10-26T03:28:52;100990.31;;;11.79;100.00
65880;BME280;52661;51.364;6.054;2022-10-26T03:31:18;100996.94;;;11.82;100.00
65880;BME280;52661;51.364;6.054;2022-10-26T03:33:43;100993.03;;;11.83;100.00
65880;BME280;52661;51.364;6.054;2022-10-26T03:36:08;100995.38;;;11.84;100.00
65880;BME280;52661;51.364;6.054;2022-10-26T03:38:34;100993.03;;;11.87;100.00
65880;BME280;52661;51.364;6.054;2022-10-26T03:40:59;100989.16;;;11.88;100.00
65880;BME280;52661;51.364;6.054;2022-10-26T03:43:25;100988.78;;;11.89;100.00
65880;BME280;52661;51.364;6.054;2022-10-26T03:45:50;100991.88;;;11.88;100.00
65880;BME280;52661;51.364;6.054;2022-10-26T03:48:16;100993.03;;;11.90;100.00
65880;BME280;52661;51.364;6.054;2022-10-26T03:50:41;100994.59;;;11.91;100.00
65880;BME280;52661;51.364;6.054;2022-10-26T03:53:06;100982.94;;;11.94;100.00
65880;BME280;52661;51.364;6.054;2022-10-26T03:55:32;100988.38;;;11.94;100.00
65880;BME280;52661;51.364;6.054;2022-10-26T03:57:57;100987.59;;;11.97;100.00
65880;BME280;52661;51.364;6.054;2022-10-26T04:00:23;100980.59;;;11.96;100.00
65880;BME280;52661;51.364;6.054;2022-10-26T04:02:56;100978.66;;;11.97;100.00
65880;BME280;52661;51.364;6.054;2022-10-26T04:05:26;100987.97;;;11.96;100.00
65880;BME280;52661;51.364;6.054;2022-10-26T04:07:53;100981.75;;;11.95;100.00
65880;BME280;52661;51.364;6.054;2022-10-26T04:10:18;100981.00;;;11.91;100.00
65880;BME280;52661;51.364;6.054;2022-10-26T04:12:44;100979.81;;;11.96;100.00
65880;BME280;52661;51.364;6.054;2022-10-26T04:15:09;100982.16;;;11.90;100.00
65880;BME280;52661;51.364;6.054;2022-10-26T04:17:34;100988.38;;;11.94;100.00
65880;BME280;52661;51.364;6.054;2022-10-26T04:20:00;100990.34;;;11.94;100.00
65880;BME280;52661;51.364;6.054;2022-10-26T04:22:25;100974.78;;;11.91;100.00
65880;BME280;52661;51.364;6.054;2022-10-26T04:24:51;100981.78;;;11.88;100.00
65880;BME280;52661;51.364;6.054;2022-10-26T04:27:16;100976.72;;;11.83;100.00
65880;BME280;52661;51.364;6.054;2022-10-26T04:29:41;100984.50;;;11.84;100.00
65880;BME280;52661;51.364;6.054;2022-10-26T04:32:06;100979.06;;;11.81;100.00
65880;BME280;52661;51.364;6.054;2022-10-26T04:34:32;100977.13;;;11.78;100.00
65880;BME280;52661;51.364;6.054;2022-10-26T04:36:57;100975.56;;;11.77;100.00
65880;BME280;52661;51.364;6.054;2022-10-26T04:39:23;100968.97;;;11.78;100.00
65880;BME280;52661;51.364;6.054;2022-10-26T04:41:48;100974.78;;;11.83;100.00
65880;BME280;52661;51.364;6.054;2022-10-26T04:44:14;100979.44;;;11.83;100.00
65880;BME280;52661;51.364;6.054;2022-10-26T04:46:39;100977.13;;;11.85;100.00
65880;BME280;52661;51.364;6.054;2022-10-26T04:49:05;100972.84;;;11.84;100.00
65880;BME280;52661;51.364;6.054;2022-10-26T04:51:30;100978.28;;;11.88;100.00
65880;BME280;52661;51.364;6.054;2022-10-26T04:53:55;100983.72;;;11.91;100.00
65880;BME280;52661;51.364;6.054;2022-10-26T04:56:22;100986.44;;;11.95;100.00
65880;BME280;52661;51.364;6.054;2022-10-26T04:58:47;100985.63;;;11.98;100.00
65880;BME280;52661;51.364;6.054;2022-10-26T05:01:13;100981.38;;;11.97;100.00
65880;BME280;52661;51.364;6.054;2022-10-26T05:03:38;100979.44;;;11.97;100.00
65880;BME280;52661;51.364;6.054;2022-10-26T05:06:04;100986.41;;;11.98;100.00
65880;BME280;52661;51.364;6.054;2022-10-26T05:08:29;100986.03;;;12.03;100.00
65880;BME280;52661;51.364;6.054;2022-10-26T05:10:54;100985.63;;;12.08;100.00
65880;BME280;52661;51.364;6.054;2022-10-26T05:13:20;100978.63;;;12.11;100.00
65880;BME280;52661;51.364;6.054;2022-10-26T05:15:45;100978.22;;;12.12;100.00
65880;BME280;52661;51.364;6.054;2022-10-26T05:18:11;100979.03;;;12.09;100.00
65880;BME280;52661;51.364;6.054;2022-10-26T05:20:36;100973.19;;;12.07;100.00
65880;BME280;52661;51.364;6.054;2022-10-26T05:23:06;100977.09;;;12.06;100.00
65880;BME280;52661;51.364;6.054;2022-10-26T05:25:35;100970.47;;;12.07;100.00
65880;BME280;52661;51.364;6.054;2022-10-26T05:28:03;100972.41;;;12.10;100.00
65880;BME280;52661;51.364;6.054;2022-10-26T05:30:29;100965.41;;;12.13;100.00
65880;BME280;52661;51.364;6.054;2022-10-26T05:32:56;100970.06;;;12.16;100.00
65880;BME280;52661;51.364;6.054;2022-10-26T05:35:22;100975.88;;;12.21;100.00
65880;BME280;52661;51.364;6.054;2022-10-26T05:37:47;100977.84;;;12.21;100.00
65880;BME280;52661;51.364;6.054;2022-10-26T05:40:12;100975.09;;;12.24;100.00
65880;BME280;52661;51.364;6.054;2022-10-26T05:42:39;100978.59;;;12.28;100.00
65880;BME280;52661;51.364;6.054;2022-10-26T05:45:05;100978.97;;;12.30;100.00
65880;BME280;52661;51.364;6.054;2022-10-26T05:47:30;100982.47;;;12.31;100.00
65880;BME280;52661;51.364;6.054;2022-10-26T05:49:55;100980.16;;;12.26;100.00
65880;BME280;52661;51.364;6.054;2022-10-26T05:52:21;100975.09;;;12.24;100.00
65880;BME280;52661;51.364;6.054;2022-10-26T05:54:46;100982.47;;;12.27;100.00
65880;BME280;52661;51.364;6.054;2022-10-26T05:57:12;100986.34;;;12.30;100.00
65880;BME280;52661;51.364;6.054;2022-10-26T05:59:37;100984.03;;;12.28;100.00
65880;BME280;52661;51.364;6.054;2022-10-26T06:05:25;100991.41;;;12.35;100.00
65880;BME280;52661;51.364;6.054;2022-10-26T06:07:52;100989.06;;;12.41;100.00
65880;BME280;52661;51.364;6.054;2022-10-26T06:10:18;100995.25;;;12.45;100.00
65880;BME280;52661;51.364;6.054;2022-10-26T06:12:44;100990.56;;;12.49;100.00
65880;BME280;52661;51.364;6.054;2022-10-26T06:15:19;100997.56;;;12.50;100.00
65880;BME280;52661;51.364;6.054;2022-10-26T06:21:19;101007.28;;;12.54;100.00
65880;BME280;52661;51.364;6.054;2022-10-26T06:23:52;101012.31;;;12.56;100.00
65880;BME280;52661;51.364;6.054;2022-10-26T06:26:31;101013.88;;;12.57;100.00
65880;BME280;52661;51.364;6.054;2022-10-26T06:32:16;101013.09;;;12.60;100.00
65880;BME280;52661;51.364;6.054;2022-10-26T06:34:47;101014.66;;;12.61;100.00
65880;BME280;52661;51.364;6.054;2022-10-26T06:37:15;101007.63;;;12.63;100.00
65880;BME280;52661;51.364;6.054;2022-10-26T06:39:44;101003.38;;;12.62;100.00
65880;BME280;52661;51.364;6.054;2022-10-26T06:42:10;101015.81;;;12.63;100.00
65880;BME280;52661;51.364;6.054;2022-10-26T06:44:36;101008.81;;;12.66;100.00
65880;BME280;52661;51.364;6.054;2022-10-26T06:49:40;101011.53;;;12.69;100.00
65880;BME280;52661;51.364;6.054;2022-10-26T06:52:31;101014.25;;;12.69;100.00
65880;BME280;52661;51.364;6.054;2022-10-26T06:54:58;101015.41;;;12.72;100.00
65880;BME280;52661;51.364;6.054;2022-10-26T06:57:28;101025.88;;;12.77;100.00
65880;BME280;52661;51.364;6.054;2022-10-26T06:59:58;101030.16;;;12.78;100.00
65880;BME280;52661;51.364;6.054;2022-10-26T07:02:25;101013.81;;;12.78;100.00
65880;BME280;52661;51.364;6.054;2022-10-26T07:04:50;101016.94;;;12.80;100.00
65880;BME280;52661;51.364;6.054;2022-10-26T07:07:20;101028.19;;;12.82;100.00
65880;BME280;52661;51.364;6.054;2022-10-26T07:09:45;101027.81;;;12.83;100.00
65880;BME280;52661;51.364;6.054;2022-10-26T07:12:11;101024.28;;;12.87;100.00
65880;BME280;52661;51.364;6.054;2022-10-26T07:14:36;101030.50;;;12.87;100.00
65880;BME280;52661;51.364;6.054;2022-10-26T07:17:02;101022.72;;;12.89;100.00
65880;BME280;52661;51.364;6.054;2022-10-26T07:19:28;101016.09;;;12.90;100.00
65880;BME280;52661;51.364;6.054;2022-10-26T07:21:57;101006.38;;;12.89;100.00
65880;BME280;52661;51.364;6.054;2022-10-26T07:24:26;101005.19;;;12.90;100.00
65880;BME280;52661;51.364;6.054;2022-10-26T07:26:56;101012.56;;;12.93;100.00
65880;BME280;52661;51.364;6.054;2022-10-26T07:29:22;101007.50;;;12.95;100.00
65880;BME280;52661;51.364;6.054;2022-10-26T07:31:47;101020.16;;;13.34;100.00
65880;BME280;52661;51.364;6.054;2022-10-26T07:34:13;101020.16;;;13.34;100.00
65880;BME280;52661;51.364;6.054;2022-10-26T07:36:38;101020.59;;;13.25;100.00
65880;BME280;52661;51.364;6.054;2022-10-26T07:39:07;101026.84;;;13.22;100.00
65880;BME280;52661;51.364;6.054;2022-10-26T07:41:32;101041.66;;;13.21;100.00
65880;BME280;52661;51.364;6.054;2022-10-26T07:43:58;101047.13;;;13.17;100.00
65880;BME280;52661;51.364;6.054;2022-10-26T07:46:23;101048.69;;;13.15;100.00
65880;BME280;52661;51.364;6.054;2022-10-26T07:48:49;101049.81;;;13.21;100.00
65880;BME280;52661;51.364;6.054;2022-10-26T07:51:14;101049.03;;;13.24;100.00
65880;BME280;52661;51.364;6.054;2022-10-26T07:53:40;101051.41;;;13.18;100.00
65880;BME280;52661;51.364;6.054;2022-10-26T07:56:05;101049.47;;;13.15;100.00
65880;BME280;52661;51.364;6.054;2022-10-26T07:58:31;101065.03;;;13.15;100.00
65880;BME280;52661;51.364;6.054;2022-10-26T08:00:56;101071.25;;;13.19;100.00
65880;BME280;52661;51.364;6.054;2022-10-26T08:03:22;101064.63;;;13.23;100.00
65880;BME280;52661;51.364;6.054;2022-10-26T08:05:48;101068.47;;;13.29;100.00
65880;BME280;52661;51.364;6.054;2022-10-26T08:08:20;101062.16;;;13.43;100.00
65880;BME280;52661;51.364;6.054;2022-10-26T08:10:46;101066.78;;;13.50;100.00
65880;BME280;52661;51.364;6.054;2022-10-26T08:13:12;101082.31;;;13.60;100.00
65880;BME280;52661;51.364;6.054;2022-10-26T08:15:38;101077.56;;;13.67;100.00
65880;BME280;52661;51.364;6.054;2022-10-26T08:18:03;101080.66;;;13.76;100.00
65880;BME280;52661;51.364;6.054;2022-10-26T08:20:29;101103.94;;;13.88;100.00
65880;BME280;52661;51.364;6.054;2022-10-26T08:22:58;101110.44;;;14.05;100.00
65880;BME280;52661;51.364;6.054;2022-10-26T08:25:24;101107.59;;;14.19;100.00
65880;BME280;52661;51.364;6.054;2022-10-26T08:27:50;101103.28;;;14.25;100.00
65880;BME280;52661;51.364;6.054;2022-10-26T08:30:15;101101.22;;;14.36;100.00
65880;BME280;52661;51.364;6.054;2022-10-26T08:32:40;101105.06;;;14.46;100.00
65880;BME280;52661;51.364;6.054;2022-10-26T08:35:09;101111.06;;;14.67;100.00
65880;BME280;52661;51.364;6.054;2022-10-26T08:37:34;101107.84;;;14.76;100.00
65880;BME280;52661;51.364;6.054;2022-10-26T08:40:02;101120.63;;;14.86;100.00
65880;BME280;52661;51.364;6.054;2022-10-26T08:42:34;101115.13;;;14.90;100.00
65880;BME280;52661;51.364;6.054;2022-10-26T08:45:09;101123.25;;;14.97;100.00
65880;BME280;52661;51.364;6.054;2022-10-26T08:47:41;101120.81;;;15.02;100.00
65880;BME280;52661;51.364;6.054;2022-10-26T08:50:28;101114.06;;;15.14;100.00
65880;BME280;52661;51.364;6.054;2022-10-26T08:53:10;101123.25;;;15.27;100.00
65880;BME280;52661;51.364;6.054;2022-10-26T08:55:42;101124.75;;;15.32;100.00
65880;BME280;52661;51.364;6.054;2022-10-26T08:58:14;101119.03;;;15.53;100.00
65880;BME280;52661;51.364;6.054;2022-10-26T09:00:40;101129.19;;;15.52;100.00
65880;BME280;52661;51.364;6.054;2022-10-26T09:03:13;101126.50;;;15.49;100.00
65880;BME280;52661;51.364;6.054;2022-10-26T09:17:05;101132.00;;;16.02;100.00
65880;BME280;52661;51.364;6.054;2022-10-26T09:25:21;101150.81;;;16.23;100.00
65880;BME280;52661;51.364;6.054;2022-10-26T09:27:55;101150.06;;;16.23;100.00
65880;BME280;52661;51.364;6.054;2022-10-26T09:30:22;101154.75;;;16.22;100.00
65880;BME280;52661;51.364;6.054;2022-10-26T09:32:50;101153.97;;;16.22;100.00
65880;BME280;52661;51.364;6.054;2022-10-26T09:35:21;101159.53;;;16.42;100.00
65880;BME280;52661;51.364;6.054;2022-10-26T09:38:12;101168.69;;;16.55;99.36
65880;BME280;52661;51.364;6.054;2022-10-26T09:43:41;101177.22;;;16.60;99.68
65880;BME280;52661;51.364;6.054;2022-10-26T09:46:14;101179.22;;;16.60;100.00
65880;BME280;52661;51.364;6.054;2022-10-26T09:48:52;101182.09;;;16.72;98.84
65880;BME280;52661;51.364;6.054;2022-10-26T09:51:20;101185.97;;;16.75;98.52
65880;BME280;52661;51.364;6.054;2022-10-26T09:53:47;101192.81;;;16.87;98.89
65880;BME280;52661;51.364;6.054;2022-10-26T09:56:13;101198.03;;;17.01;97.38
65880;BME280;52661;51.364;6.054;2022-10-26T09:59:01;101203.19;;;16.99;97.11
65880;BME280;52661;51.364;6.054;2022-10-26T10:01:33;101203.38;;;17.08;98.20
65880;BME280;52661;51.364;6.054;2022-10-26T10:09:24;101222.75;;;17.20;96.09
65880;BME280;52661;51.364;6.054;2022-10-26T10:11:55;101221.69;;;17.34;95.66
65880;BME280;52661;51.364;6.054;2022-10-26T10:14:38;101233.09;;;17.33;97.04
65880;BME280;52661;51.364;6.054;2022-10-26T10:17:18;101241.53;;;17.42;96.19
65880;BME280;52661;51.364;6.054;2022-10-26T10:19:45;101241.19;;;17.40;95.93
65880;BME280;52661;51.364;6.054;2022-10-26T10:22:20;101240.91;;;17.54;95.51
65880;BME280;52661;51.364;6.054;2022-10-26T10:24:57;101243.09;;;17.62;95.58
65880;BME280;52661;51.364;6.054;2022-10-26T10:27:23;101241.75;;;17.70;93.76
65880;BME280;52661;51.364;6.054;2022-10-26T10:29:55;101239.66;;;17.78;94.35
65880;BME280;52661;51.364;6.054;2022-10-26T10:32:23;101248.28;;;17.77;93.63
65880;BME280;52661;51.364;6.054;2022-10-26T10:34:52;101244.28;;;17.81;94.55
65880;BME280;52661;51.364;6.054;2022-10-26T10:37:37;101260.91;;;17.74;94.86
65880;BME280;52661;51.364;6.054;2022-10-26T10:40:08;101260.97;;;17.70;94.69
65880;BME280;52661;51.364;6.054;2022-10-26T10:42:40;101262.53;;;17.72;94.75
65880;BME280;52661;51.364;6.054;2022-10-26T10:45:19;101260.50;;;17.76;94.18
65880;BME280;52661;51.364;6.054;2022-10-26T10:50:38;101269.13;;;17.74;94.48
65880;BME280;52661;51.364;6.054;2022-10-26T10:53:20;101276.97;;;17.76;96.48
65880;BME280;52661;51.364;6.054;2022-10-26T10:58:36;101280.13;;;17.94;93.75
65880;BME280;52661;51.364;6.054;2022-10-26T11:01:10;101287.69;;;18.06;92.57
65880;BME280;52661;51.364;6.054;2022-10-26T11:06:35;101289.38;;;18.36;91.09
65880;BME280;52661;51.364;6.054;2022-10-26T11:09:06;101294.19;;;18.32;92.69
65880;BME280;52661;51.364;6.054;2022-10-26T11:11:38;101287.25;;;18.43;91.41
65880;BME280;52661;51.364;6.054;2022-10-26T11:14:13;101291.88;;;18.46;91.31
65880;BME280;52661;51.364;6.054;2022-10-26T11:16:48;101301.41;;;18.26;93.80
65880;BME280;52661;51.364;6.054;2022-10-26T11:19:21;101297.78;;;18.29;93.16
65880;BME280;52661;51.364;6.054;2022-10-26T11:21:53;101292.31;;;18.45;91.10
65880;BME280;52661;51.364;6.054;2022-10-26T11:24:36;101296.81;;;18.55;90.95
65880;BME280;52661;51.364;6.054;2022-10-26T11:27:17;101293.22;;;18.58;90.34
65880;BME280;52661;51.364;6.054;2022-10-26T11:32:50;101296.19;;;18.47;91.40
65880;BME280;52661;51.364;6.054;2022-10-26T11:37:54;101306.31;;;18.50;92.34
65880;BME280;52661;51.364;6.054;2022-10-26T11:40:24;101302.31;;;18.55;91.73
65880;BME280;52661;51.364;6.054;2022-10-26T11:45:32;101307.75;;;18.58;92.13
65880;BME280;52661;51.364;6.054;2022-10-26T11:50:49;101310.66;;;18.67;92.19
65880;BME280;52661;51.364;6.054;2022-10-26T11:53:25;101314.59;;;18.83;90.82
65880;BME280;52661;51.364;6.054;2022-10-26T11:55:54;101321.91;;;18.89;90.59
65880;BME280;52661;51.364;6.054;2022-10-26T11:58:24;101327.78;;;18.91;90.68
65880;BME280;52661;51.364;6.054;2022-10-26T12:01:03;101329.56;;;18.98;89.77
65880;BME280;52661;51.364;6.054;2022-10-26T12:03:33;101324.84;;;18.98;90.26
65880;BME280;52661;51.364;6.054;2022-10-26T12:06:00;101330.22;;;19.18;89.29
65880;BME280;52661;51.364;6.054;2022-10-26T12:08:33;101325.94;;;19.17;88.77
65880;BME280;52661;51.364;6.054;2022-10-26T12:13:58;101335.03;;;19.30;88.03
65880;BME280;52661;51.364;6.054;2022-10-26T12:16:39;101335.72;;;19.34;87.86
65880;BME280;52661;51.364;6.054;2022-10-26T12:19:25;101337.91;;;19.39;87.32
65880;BME280;52661;51.364;6.054;2022-10-26T12:21:54;101337.41;;;19.60;87.50
65880;BME280;52661;51.364;6.054;2022-10-26T12:24:26;101336.38;;;19.54;86.92
65880;BME280;52661;51.364;6.054;2022-10-26T12:26:59;101336.28;;;19.58;85.15
65880;BME280;52661;51.364;6.054;2022-10-26T12:32:01;101338.72;;;19.69;84.54
65880;BME280;52661;51.364;6.054;2022-10-26T12:39:34;101347.06;;;19.81;83.92
65880;BME280;52661;51.364;6.054;2022-10-26T12:47:07;101354.13;;;19.95;82.10
65880;BME280;52661;51.364;6.054;2022-10-26T12:50:01;101357.41;;;19.90;81.54
65880;BME280;52661;51.364;6.054;2022-10-26T12:53:05;101369.75;;;19.85;82.64
65880;BME280;52661;51.364;6.054;2022-10-26T12:58:44;101372.91;;;19.71;80.85
65880;BME280;52661;51.364;6.054;2022-10-26T13:01:22;101372.47;;;19.73;81.70
65880;BME280;52661;51.364;6.054;2022-10-26T13:04:00;101375.56;;;19.75;82.24
65880;BME280;52661;51.364;6.054;2022-10-26T13:06:51;101374.59;;;19.81;82.20
65880;BME280;52661;51.364;6.054;2022-10-26T13:09:26;101381.69;;;19.95;80.95
65880;BME280;52661;51.364;6.054;2022-10-26T13:11:54;101379.50;;;20.02;79.79
65880;BME280;52661;51.364;6.054;2022-10-26T13:14:28;101375.00;;;20.08;80.66
65880;BME280;52661;51.364;6.054;2022-10-26T13:16:55;101372.69;;;20.07;79.62
65880;BME280;52661;51.364;6.054;2022-10-26T13:19:43;101379.19;;;20.13;79.32
65880;BME280;52661;51.364;6.054;2022-10-26T13:22:14;101390.03;;;20.20;79.53
65880;BME280;52661;51.364;6.054;2022-10-26T13:24:46;101382.41;;;20.24;79.40
65880;BME280;52661;51.364;6.054;2022-10-26T13:32:38;101385.22;;;20.37;78.84
65880;BME280;52661;51.364;6.054;2022-10-26T13:35:08;101382.25;;;20.44;80.10
65880;BME280;52661;51.364;6.054;2022-10-26T13:37:36;101377.41;;;20.48;79.29
65880;BME280;52661;51.364;6.054;2022-10-26T13:40:05;101378.94;;;20.36;79.27
65880;BME280;52661;51.364;6.054;2022-10-26T13:43:01;101380.69;;;20.30;77.72
65880;BME280;52661;51.364;6.054;2022-10-26T13:45:30;101379.25;;;20.26;77.60
65880;BME280;52661;51.364;6.054;2022-10-26T13:48:17;101379.47;;;20.31;76.91
65880;BME280;52661;51.364;6.054;2022-10-26T13:50:55;101388.44;;;20.35;77.35
65880;BME280;52661;51.364;6.054;2022-10-26T13:53:37;101386.56;;;20.45;77.92
65880;BME280;52661;51.364;6.054;2022-10-26T13:58:57;101388.84;;;20.34;75.99
65880;BME280;52661;51.364;6.054;2022-10-26T14:01:25;101389.63;;;20.34;76.35
65880;BME280;52661;51.364;6.054;2022-10-26T14:03:52;101395.91;;;20.35;76.47
65880;BME280;52661;51.364;6.054;2022-10-26T14:06:31;101395.09;;;20.22;76.84
65880;BME280;52661;51.364;6.054;2022-10-26T14:09:02;101391.88;;;20.10;77.88
65880;BME280;52661;51.364;6.054;2022-10-26T14:13:56;101393.78;;;19.85;80.54
65880;BME280;52661;51.364;6.054;2022-10-26T14:16:25;101399.81;;;19.80;78.75
65880;BME280;52661;51.364;6.054;2022-10-26T14:18:51;101405.19;;;19.71;78.48
65880;BME280;52661;51.364;6.054;2022-10-26T14:21:20;101409.00;;;19.60;78.69
65880;BME280;52661;51.364;6.054;2022-10-26T14:23:52;101415.72;;;19.59;77.35
65880;BME280;52661;51.364;6.054;2022-10-26T14:26:27;101420.94;;;19.54;78.25
65880;BME280;52661;51.364;6.054;2022-10-26T14:28:55;101427.00;;;19.49;79.48
65880;BME280;52661;51.364;6.054;2022-10-26T14:31:26;101420.09;;;19.41;79.39
65880;BME280;52661;51.364;6.054;2022-10-26T14:33:53;101428.03;;;19.39;79.60
65880;BME280;52661;51.364;6.054;2022-10-26T14:36:22;101418.28;;;19.34;80.12
65880;BME280;52661;51.364;6.054;2022-10-26T14:38:56;101425.50;;;19.28;81.39
65880;BME280;52661;51.364;6.054;2022-10-26T14:41:23;101423.53;;;19.29;80.92